sensor_id;sensor_type;location;lat;lon;timestamp;temperature;humidity
58582;DHT22;44361;51.476;5.700;2024-02-15T00:01:54;11.90;99.90
58582;DHT22;44361;51.476;5.700;2024-02-15T00:04:20;11.90;99.90
58582;DHT22;44361;51.476;5.700;2024-02-15T00:06:45;11.90;99.90
58582;DHT22;44361;51.476;5.700;2024-02-15T00:09:11;11.90;99.90
58582;DHT22;44361;51.476;5.700;2024-02-15T00:11:36;11.80;99.90
58582;DHT22;44361;51.476;5.700;2024-02-15T00:14:04;11.80;99.90
58582;DHT22;44361;51.476;5.700;2024-02-15T00:16:30;11.80;99.90
58582;DHT22;44361;51.476;5.700;2024-02-15T00:18:55;11.80;99.90
58582;DHT22;44361;51.476;5.700;2024-02-15T00:21:21;11.80;99.90
58582;DHT22;44361;51.476;5.700;2024-02-15T00:23:48;11.80;99.90
58582;DHT22;44361;51.476;5.700;2024-02-15T00:26:17;11.80;99.90
58582;DHT22;44361;51.476;5.700;2024-02-15T00:28:43;11.80;99.90
58582;DHT22;44361;51.476;5.700;2024-02-15T00:31:08;11.80;99.90
58582;DHT22;44361;51.476;5.700;2024-02-15T00:33:34;11.80;99.90
58582;DHT22;44361;51.476;5.700;2024-02-15T00:36:02;11.80;99.90
58582;DHT22;44361;51.476;5.700;2024-02-15T00:38:29;11.80;99.90
58582;DHT22;44361;51.476;5.700;2024-02-15T00:40:55;11.80;99.90
58582;DHT22;44361;51.476;5.700;2024-02-15T00:43:20;11.70;99.90
58582;DHT22;44361;51.476;5.700;2024-02-15T00:45:46;11.70;99.90
58582;DHT22;44361;51.476;5.700;2024-02-15T00:48:12;11.70;99.90
58582;DHT22;44361;51.476;5.700;2024-02-15T00:50:37;11.80;99.90
58582;DHT22;44361;51.476;5.700;2024-02-15T00:53:03;11.70;99.90
58582;DHT22;44361;51.476;5.700;2024-02-15T00:55:29;11.70;99.90
58582;DHT22;44361;51.476;5.700;2024-02-15T00:57:54;11.70;99.90
58582;DHT22;44361;51.476;5.700;2024-02-15T01:00:20;11.70;99.90
58582;DHT22;44361;51.476;5.700;2024-02-15T01:02:46;11.70;99.90
58582;DHT22;44361;51.476;5.700;2024-02-15T01:05:11;11.80;99.90
58582;DHT22;44361;51.476;5.700;2024-02-15T01:07:37;11.70;99.90
58582;DHT22;44361;51.476;5.700;2024-02-15T01:10:03;11.80;99.90
58582;DHT22;44361;51.476;5.700;2024-02-15T01:12:28;11.70;99.90
58582;DHT22;44361;51.476;5.700;2024-02-15T01:14:54;11.80;99.90
58582;DHT22;44361;51.476;5.700;2024-02-15T01:17:21;11.80;99.90
58582;DHT22;44361;51.476;5.700;2024-02-15T01:19:47;11.80;99.90
58582;DHT22;44361;51.476;5.700;2024-02-15T01:22:12;11.80;99.90
58582;DHT22;44361;51.476;5.700;2024-02-15T01:24:38;11.80;99.90
58582;DHT22;44361;51.476;5.700;2024-02-15T01:27:04;11.80;99.90
58582;DHT22;44361;51.476;5.700;2024-02-15T01:29:29;11.80;99.90
58582;DHT22;44361;51.476;5.700;2024-02-15T01:31:55;11.80;99.90
58582;DHT22;44361;51.476;5.700;2024-02-15T01:34:21;11.80;99.90
58582;DHT22;44361;51.476;5.700;2024-02-15T01:36:48;11.80;99.90
58582;DHT22;44361;51.476;5.700;2024-02-15T01:39:13;11.80;99.90
58582;DHT22;44361;51.476;5.700;2024-02-15T01:41:39;11.80;99.90
58582;DHT22;44361;51.476;5.700;2024-02-15T01:44:04;11.70;99.90
58582;DHT22;44361;51.476;5.700;2024-02-15T01:46:31;11.80;99.90
58582;DHT22;44361;51.476;5.700;2024-02-15T01:48:57;11.70;99.90
58582;DHT22;44361;51.476;5.700;2024-02-15T01:51:24;11.70;99.90
58582;DHT22;44361;51.476;5.700;2024-02-15T01:53:50;11.70;99.90
58582;DHT22;44361;51.476;5.700;2024-02-15T01:56:16;11.70;99.90
58582;DHT22;44361;51.476;5.700;2024-02-15T01:58:43;11.70;99.90
58582;DHT22;44361;51.476;5.700;2024-02-15T02:01:11;11.60;99.90
58582;DHT22;44361;51.476;5.700;2024-02-15T02:03:36;11.60;99.90
58582;DHT22;44361;51.476;5.700;2024-02-15T02:06:02;11.60;99.90
58582;DHT22;44361;51.476;5.700;2024-02-15T02:08:28;11.70;99.90
58582;DHT22;44361;51.476;5.700;2024-02-15T02:10:54;11.70;99.90
58582;DHT22;44361;51.476;5.700;2024-02-15T02:13:20;11.70;99.90
58582;DHT22;44361;51.476;5.700;2024-02-15T02:15:45;11.70;99.90
58582;DHT22;44361;51.476;5.700;2024-02-15T02:18:11;11.70;99.90
58582;DHT22;44361;51.476;5.700;2024-02-15T02:20:36;11.70;99.90
58582;DHT22;44361;51.476;5.700;2024-02-15T02:23:28;11.80;99.90
58582;DHT22;44361;51.476;5.700;2024-02-15T02:25:55;11.80;99.90
58582;DHT22;44361;51.476;5.700;2024-02-15T02:28:21;11.80;99.90
58582;DHT22;44361;51.476;5.700;2024-02-15T02:30:47;11.80;99.90
58582;DHT22;44361;51.476;5.700;2024-02-15T02:33:13;11.80;99.90
58582;DHT22;44361;51.476;5.700;2024-02-15T02:35:48;11.80;99.90
58582;DHT22;44361;51.476;5.700;2024-02-15T02:38:14;11.80;99.90
58582;DHT22;44361;51.476;5.700;2024-02-15T02:40:40;11.80;99.90
58582;DHT22;44361;51.476;5.700;2024-02-15T02:43:06;11.70;99.90
58582;DHT22;44361;51.476;5.700;2024-02-15T02:45:32;11.60;99.90
58582;DHT22;44361;51.476;5.700;2024-02-15T02:47:57;11.60;99.90
58582;DHT22;44361;51.476;5.700;2024-02-15T02:50:23;11.50;99.90
58582;DHT22;44361;51.476;5.700;2024-02-15T02:52:49;11.50;99.90
58582;DHT22;44361;51.476;5.700;2024-02-15T02:55:15;11.50;99.90
58582;DHT22;44361;51.476;5.700;2024-02-15T02:57:41;11.50;99.90
58582;DHT22;44361;51.476;5.700;2024-02-15T03:00:09;11.50;99.90
58582;DHT22;44361;51.476;5.700;2024-02-15T03:02:40;11.50;99.90
58582;DHT22;44361;51.476;5.700;2024-02-15T03:05:07;11.50;99.90
58582;DHT22;44361;51.476;5.700;2024-02-15T03:07:37;11.40;99.90
58582;DHT22;44361;51.476;5.700;2024-02-15T03:10:04;11.40;99.90
58582;DHT22;44361;51.476;5.700;2024-02-15T03:12:30;11.40;99.90
58582;DHT22;44361;51.476;5.700;2024-02-15T03:14:56;11.50;99.90
58582;DHT22;44361;51.476;5.700;2024-02-15T03:17:25;11.50;99.90
58582;DHT22;44361;51.476;5.700;2024-02-15T03:19:51;11.50;99.90
58582;DHT22;44361;51.476;5.700;2024-02-15T03:22:17;11.50;99.90
58582;DHT22;44361;51.476;5.700;2024-02-15T03:24:42;11.50;99.90
58582;DHT22;44361;51.476;5.700;2024-02-15T03:27:08;11.50;99.90
58582;DHT22;44361;51.476;5.700;2024-02-15T03:29:35;11.50;99.90
58582;DHT22;44361;51.476;5.700;2024-02-15T03:32:02;11.60;99.90
58582;DHT22;44361;51.476;5.700;2024-02-15T03:34:31;11.50;99.90
58582;DHT22;44361;51.476;5.700;2024-02-15T03:36:57;11.60;99.90
58582;DHT22;44361;51.476;5.700;2024-02-15T03:39:24;11.60;99.90
58582;DHT22;44361;51.476;5.700;2024-02-15T03:41:50;11.60;99.90
58582;DHT22;44361;51.476;5.700;2024-02-15T03:44:19;11.60;99.90
58582;DHT22;44361;51.476;5.700;2024-02-15T03:46:45;11.60;99.90
58582;DHT22;44361;51.476;5.700;2024-02-15T03:49:17;11.60;99.90
58582;DHT22;44361;51.476;5.700;2024-02-15T03:51:43;11.70;99.90
58582;DHT22;44361;51.476;5.700;2024-02-15T03:54:11;11.70;99.90
58582;DHT22;44361;51.476;5.700;2024-02-15T03:56:36;11.70;99.90
58582;DHT22;44361;51.476;5.700;2024-02-15T03:59:03;11.70;99.90
58582;DHT22;44361;51.476;5.700;2024-02-15T04:01:30;11.60;99.90
58582;DHT22;44361;51.476;5.700;2024-02-15T04:03:59;11.70;99.90
58582;DHT22;44361;51.476;5.700;2024-02-15T04:06:25;11.70;99.90
58582;DHT22;44361;51.476;5.700;2024-02-15T04:08:53;11.60;99.90
58582;DHT22;44361;51.476;5.700;2024-02-15T04:11:18;11.70;99.90
58582;DHT22;44361;51.476;5.700;2024-02-15T04:13:45;11.70;99.90
58582;DHT22;44361;51.476;5.700;2024-02-15T04:16:10;11.70;99.90
58582;DHT22;44361;51.476;5.700;2024-02-15T04:18:36;11.70;99.90
58582;DHT22;44361;51.476;5.700;2024-02-15T04:21:03;11.70;99.90
58582;DHT22;44361;51.476;5.700;2024-02-15T04:23:31;11.70;99.90
58582;DHT22;44361;51.476;5.700;2024-02-15T04:25:57;11.70;99.90
58582;DHT22;44361;51.476;5.700;2024-02-15T04:28:23;11.80;99.90
58582;DHT22;44361;51.476;5.700;2024-02-15T04:30:48;11.80;99.90
58582;DHT22;44361;51.476;5.700;2024-02-15T04:33:14;11.80;99.90
58582;DHT22;44361;51.476;5.700;2024-02-15T04:35:41;11.80;99.90
58582;DHT22;44361;51.476;5.700;2024-02-15T04:38:06;11.80;99.90
58582;DHT22;44361;51.476;5.700;2024-02-15T04:40:34;11.80;99.90
58582;DHT22;44361;51.476;5.700;2024-02-15T04:43:00;11.80;99.90
58582;DHT22;44361;51.476;5.700;2024-02-15T04:45:29;11.70;99.90
58582;DHT22;44361;51.476;5.700;2024-02-15T04:47:56;11.80;99.90
58582;DHT22;44361;51.476;5.700;2024-02-15T04:50:22;11.80;99.90
58582;DHT22;44361;51.476;5.700;2024-02-15T04:52:48;11.80;99.90
58582;DHT22;44361;51.476;5.700;2024-02-15T04:55:15;11.80;99.90
58582;DHT22;44361;51.476;5.700;2024-02-15T04:57:41;11.70;99.90
58582;DHT22;44361;51.476;5.700;2024-02-15T05:00:07;11.70;99.90
58582;DHT22;44361;51.476;5.700;2024-02-15T05:02:37;11.70;99.90
58582;DHT22;44361;51.476;5.700;2024-02-15T05:05:09;11.70;99.90
58582;DHT22;44361;51.476;5.700;2024-02-15T05:07:35;11.70;99.90
58582;DHT22;44361;51.476;5.700;2024-02-15T05:10:05;11.70;99.90
58582;DHT22;44361;51.476;5.700;2024-02-15T05:12:32;11.70;99.90
58582;DHT22;44361;51.476;5.700;2024-02-15T05:14:59;11.70;99.90
58582;DHT22;44361;51.476;5.700;2024-02-15T05:17:24;11.60;99.90
58582;DHT22;44361;51.476;5.700;2024-02-15T05:19:50;11.70;99.90
58582;DHT22;44361;51.476;5.700;2024-02-15T05:22:16;11.70;99.90
58582;DHT22;44361;51.476;5.700;2024-02-15T05:24:41;11.70;99.90
58582;DHT22;44361;51.476;5.700;2024-02-15T05:27:07;11.70;99.90
58582;DHT22;44361;51.476;5.700;2024-02-15T05:29:32;11.70;99.90
58582;DHT22;44361;51.476;5.700;2024-02-15T05:32:00;11.70;99.90
58582;DHT22;44361;51.476;5.700;2024-02-15T05:34:26;11.70;99.90
58582;DHT22;44361;51.476;5.700;2024-02-15T05:36:52;11.70;99.90
58582;DHT22;44361;51.476;5.700;2024-02-15T05:39:18;11.80;99.90
58582;DHT22;44361;51.476;5.700;2024-02-15T05:41:47;11.80;99.90
58582;DHT22;44361;51.476;5.700;2024-02-15T05:44:12;11.70;99.90
58582;DHT22;44361;51.476;5.700;2024-02-15T05:46:39;11.70;99.90
58582;DHT22;44361;51.476;5.700;2024-02-15T05:49:05;11.80;99.90
58582;DHT22;44361;51.476;5.700;2024-02-15T05:51:31;11.80;99.90
58582;DHT22;44361;51.476;5.700;2024-02-15T05:53:57;11.70;99.90
58582;DHT22;44361;51.476;5.700;2024-02-15T05:56:26;11.80;99.90
58582;DHT22;44361;51.476;5.700;2024-02-15T05:58:52;11.80;99.90
58582;DHT22;44361;51.476;5.700;2024-02-15T06:01:18;11.80;99.90
58582;DHT22;44361;51.476;5.700;2024-02-15T06:03:43;11.70;99.90
58582;DHT22;44361;51.476;5.700;2024-02-15T06:06:10;11.80;99.90
58582;DHT22;44361;51.476;5.700;2024-02-15T06:08:37;11.80;99.90
58582;DHT22;44361;51.476;5.700;2024-02-15T06:11:04;11.70;99.90
58582;DHT22;44361;51.476;5.700;2024-02-15T06:13:31;11.70;99.90
58582;DHT22;44361;51.476;5.700;2024-02-15T06:15:57;11.70;99.90
58582;DHT22;44361;51.476;5.700;2024-02-15T06:18:28;11.70;99.90
58582;DHT22;44361;51.476;5.700;2024-02-15T06:20:55;11.70;99.90
58582;DHT22;44361;51.476;5.700;2024-02-15T06:23:23;11.70;99.90
58582;DHT22;44361;51.476;5.700;2024-02-15T06:25:51;11.70;99.90
58582;DHT22;44361;51.476;5.700;2024-02-15T06:28:18;11.70;99.90
58582;DHT22;44361;51.476;5.700;2024-02-15T06:31:02;11.70;99.90
58582;DHT22;44361;51.476;5.700;2024-02-15T06:33:46;11.70;99.90
58582;DHT22;44361;51.476;5.700;2024-02-15T06:36:30;11.70;99.90
58582;DHT22;44361;51.476;5.700;2024-02-15T06:39:14;11.70;99.90
58582;DHT22;44361;51.476;5.700;2024-02-15T06:41:58;11.60;99.90
58582;DHT22;44361;51.476;5.700;2024-02-15T06:44:24;11.60;99.90
58582;DHT22;44361;51.476;5.700;2024-02-15T06:46:50;11.60;99.90
58582;DHT22;44361;51.476;5.700;2024-02-15T06:49:15;11.70;99.90
58582;DHT22;44361;51.476;5.700;2024-02-15T06:51:41;11.70;99.90
58582;DHT22;44361;51.476;5.700;2024-02-15T06:54:07;11.60;99.90
58582;DHT22;44361;51.476;5.700;2024-02-15T06:56:36;11.60;99.90
58582;DHT22;44361;51.476;5.700;2024-02-15T06:59:03;11.60;99.90
58582;DHT22;44361;51.476;5.700;2024-02-15T07:01:28;11.60;99.90
58582;DHT22;44361;51.476;5.700;2024-02-15T07:03:54;11.60;99.90
58582;DHT22;44361;51.476;5.700;2024-02-15T07:06:21;11.60;99.90
58582;DHT22;44361;51.476;5.700;2024-02-15T07:08:47;11.70;99.90
58582;DHT22;44361;51.476;5.700;2024-02-15T07:11:16;11.70;99.90
58582;DHT22;44361;51.476;5.700;2024-02-15T07:13:41;11.70;99.90
58582;DHT22;44361;51.476;5.700;2024-02-15T07:16:08;11.70;99.90
58582;DHT22;44361;51.476;5.700;2024-02-15T07:18:33;11.70;99.90
58582;DHT22;44361;51.476;5.700;2024-02-15T07:20:59;11.70;99.90
58582;DHT22;44361;51.476;5.700;2024-02-15T07:23:26;11.70;99.90
58582;DHT22;44361;51.476;5.700;2024-02-15T07:25:52;11.80;99.90
58582;DHT22;44361;51.476;5.700;2024-02-15T07:28:20;11.80;99.90
58582;DHT22;44361;51.476;5.700;2024-02-15T07:30:46;11.70;99.90
58582;DHT22;44361;51.476;5.700;2024-02-15T07:33:14;11.70;99.90
58582;DHT22;44361;51.476;5.700;2024-02-15T07:35:43;11.70;99.90
58582;DHT22;44361;51.476;5.700;2024-02-15T07:38:09;11.70;99.90
58582;DHT22;44361;51.476;5.700;2024-02-15T07:40:35;11.80;99.90
58582;DHT22;44361;51.476;5.700;2024-02-15T07:43:01;11.80;99.90
58582;DHT22;44361;51.476;5.700;2024-02-15T07:45:28;11.80;99.90
58582;DHT22;44361;51.476;5.700;2024-02-15T07:47:55;11.80;99.90
58582;DHT22;44361;51.476;5.700;2024-02-15T07:50:20;11.80;99.90
58582;DHT22;44361;51.476;5.700;2024-02-15T07:52:48;11.80;99.90
58582;DHT22;44361;51.476;5.700;2024-02-15T07:55:14;11.80;99.90
58582;DHT22;44361;51.476;5.700;2024-02-15T07:57:40;11.90;99.90
58582;DHT22;44361;51.476;5.700;2024-02-15T08:00:06;11.80;99.90
58582;DHT22;44361;51.476;5.700;2024-02-15T08:02:37;11.80;99.90
58582;DHT22;44361;51.476;5.700;2024-02-15T08:05:06;11.80;99.90
58582;DHT22;44361;51.476;5.700;2024-02-15T08:07:41;11.80;99.90
58582;DHT22;44361;51.476;5.700;2024-02-15T08:10:08;11.80;99.90
58582;DHT22;44361;51.476;5.700;2024-02-15T08:12:38;11.80;99.90
58582;DHT22;44361;51.476;5.700;2024-02-15T08:15:04;11.80;99.90
58582;DHT22;44361;51.476;5.700;2024-02-15T08:17:30;11.80;99.90
58582;DHT22;44361;51.476;5.700;2024-02-15T08:19:55;11.80;99.90
58582;DHT22;44361;51.476;5.700;2024-02-15T08:22:21;11.80;99.90
58582;DHT22;44361;51.476;5.700;2024-02-15T08:24:52;11.80;99.90
58582;DHT22;44361;51.476;5.700;2024-02-15T08:27:17;11.90;99.90
58582;DHT22;44361;51.476;5.700;2024-02-15T08:29:43;11.90;99.90
58582;DHT22;44361;51.476;5.700;2024-02-15T08:32:09;12.00;99.90
58582;DHT22;44361;51.476;5.700;2024-02-15T08:34:34;12.00;99.90
58582;DHT22;44361;51.476;5.700;2024-02-15T08:37:00;12.10;99.90
58582;DHT22;44361;51.476;5.700;2024-02-15T08:39:25;12.10;99.90
58582;DHT22;44361;51.476;5.700;2024-02-15T08:41:51;12.20;99.90
58582;DHT22;44361;51.476;5.700;2024-02-15T08:44:18;12.30;99.90
58582;DHT22;44361;51.476;5.700;2024-02-15T08:46:44;12.30;99.90
58582;DHT22;44361;51.476;5.700;2024-02-15T08:49:10;12.30;99.90
58582;DHT22;44361;51.476;5.700;2024-02-15T08:51:39;12.50;99.90
58582;DHT22;44361;51.476;5.700;2024-02-15T08:54:04;12.50;99.90
58582;DHT22;44361;51.476;5.700;2024-02-15T08:56:30;12.50;99.90
58582;DHT22;44361;51.476;5.700;2024-02-15T08:58:55;12.60;99.90
58582;DHT22;44361;51.476;5.700;2024-02-15T09:01:23;12.60;99.90
58582;DHT22;44361;51.476;5.700;2024-02-15T09:03:48;12.70;99.90
58582;DHT22;44361;51.476;5.700;2024-02-15T09:06:14;12.80;99.90
58582;DHT22;44361;51.476;5.700;2024-02-15T09:08:40;12.80;99.90
58582;DHT22;44361;51.476;5.700;2024-02-15T09:11:05;12.80;99.90
58582;DHT22;44361;51.476;5.700;2024-02-15T09:13:31;12.80;99.90
58582;DHT22;44361;51.476;5.700;2024-02-15T09:15:59;12.90;99.90
58582;DHT22;44361;51.476;5.700;2024-02-15T09:18:24;12.90;99.90
58582;DHT22;44361;51.476;5.700;2024-02-15T09:20:50;12.90;99.90
58582;DHT22;44361;51.476;5.700;2024-02-15T09:23:23;12.90;99.90
58582;DHT22;44361;51.476;5.700;2024-02-15T09:25:49;12.80;99.90
58582;DHT22;44361;51.476;5.700;2024-02-15T09:28:17;12.80;99.90
58582;DHT22;44361;51.476;5.700;2024-02-15T09:30:48;12.80;99.90
58582;DHT22;44361;51.476;5.700;2024-02-15T09:33:13;12.90;99.90
58582;DHT22;44361;51.476;5.700;2024-02-15T09:35:39;12.90;99.90
58582;DHT22;44361;51.476;5.700;2024-02-15T09:38:04;13.00;99.90
58582;DHT22;44361;51.476;5.700;2024-02-15T09:40:31;13.20;99.90
58582;DHT22;44361;51.476;5.700;2024-02-15T09:42:57;13.20;99.90
58582;DHT22;44361;51.476;5.700;2024-02-15T09:45:22;13.30;99.90
58582;DHT22;44361;51.476;5.700;2024-02-15T09:47:50;13.40;99.90
58582;DHT22;44361;51.476;5.700;2024-02-15T09:50:17;13.40;99.90
58582;DHT22;44361;51.476;5.700;2024-02-15T09:52:53;13.30;99.90
58582;DHT22;44361;51.476;5.700;2024-02-15T09:55:22;13.40;99.90
58582;DHT22;44361;51.476;5.700;2024-02-15T09:57:50;13.50;99.90
58582;DHT22;44361;51.476;5.700;2024-02-15T10:00:16;13.40;99.90
58582;DHT22;44361;51.476;5.700;2024-02-15T10:02:47;13.50;99.90
58582;DHT22;44361;51.476;5.700;2024-02-15T10:05:13;13.40;99.90
58582;DHT22;44361;51.476;5.700;2024-02-15T10:07:40;13.40;99.90
58582;DHT22;44361;51.476;5.700;2024-02-15T10:12:42;13.40;99.90
58582;DHT22;44361;51.476;5.700;2024-02-15T10:15:09;13.30;99.90
58582;DHT22;44361;51.476;5.700;2024-02-15T10:17:35;13.30;99.90
58582;DHT22;44361;51.476;5.700;2024-02-15T10:20:05;13.40;99.90
58582;DHT22;44361;51.476;5.700;2024-02-15T10:22:31;13.40;99.90
58582;DHT22;44361;51.476;5.700;2024-02-15T10:25:13;13.40;99.90
58582;DHT22;44361;51.476;5.700;2024-02-15T10:27:42;13.50;99.90
58582;DHT22;44361;51.476;5.700;2024-02-15T10:30:20;13.50;99.90
58582;DHT22;44361;51.476;5.700;2024-02-15T10:32:46;13.50;99.90
58582;DHT22;44361;51.476;5.700;2024-02-15T10:35:21;13.70;99.90
58582;DHT22;44361;51.476;5.700;2024-02-15T10:37:48;13.70;99.90
58582;DHT22;44361;51.476;5.700;2024-02-15T10:40:18;13.60;99.90
58582;DHT22;44361;51.476;5.700;2024-02-15T10:42:46;13.60;99.90
58582;DHT22;44361;51.476;5.700;2024-02-15T10:45:13;13.60;99.90
58582;DHT22;44361;51.476;5.700;2024-02-15T10:47:40;13.70;99.90
58582;DHT22;44361;51.476;5.700;2024-02-15T10:50:06;13.80;99.90
58582;DHT22;44361;51.476;5.700;2024-02-15T10:52:33;13.90;99.90
58582;DHT22;44361;51.476;5.700;2024-02-15T10:55:04;14.00;99.90
58582;DHT22;44361;51.476;5.700;2024-02-15T10:57:31;14.20;99.90
58582;DHT22;44361;51.476;5.700;2024-02-15T10:59:59;14.20;99.90
58582;DHT22;44361;51.476;5.700;2024-02-15T11:05:27;14.50;99.90
58582;DHT22;44361;51.476;5.700;2024-02-15T11:07:54;14.40;99.90
58582;DHT22;44361;51.476;5.700;2024-02-15T11:10:21;14.40;99.90
58582;DHT22;44361;51.476;5.700;2024-02-15T11:12:47;14.50;99.90
58582;DHT22;44361;51.476;5.700;2024-02-15T11:18:01;14.50;99.90
58582;DHT22;44361;51.476;5.700;2024-02-15T11:20:46;14.50;99.90
58582;DHT22;44361;51.476;5.700;2024-02-15T11:23:23;14.70;99.90
58582;DHT22;44361;51.476;5.700;2024-02-15T11:25:49;14.90;99.90
58582;DHT22;44361;51.476;5.700;2024-02-15T11:30:52;15.00;99.90
58582;DHT22;44361;51.476;5.700;2024-02-15T11:33:35;15.00;99.90
58582;DHT22;44361;51.476;5.700;2024-02-15T11:36:11;15.10;99.90
58582;DHT22;44361;51.476;5.700;2024-02-15T11:38:38;15.20;99.90
58582;DHT22;44361;51.476;5.700;2024-02-15T11:41:09;15.30;99.90
58582;DHT22;44361;51.476;5.700;2024-02-15T11:46:20;15.40;99.90
58582;DHT22;44361;51.476;5.700;2024-02-15T11:48:49;15.50;99.90
58582;DHT22;44361;51.476;5.700;2024-02-15T11:51:32;15.70;99.90
58582;DHT22;44361;51.476;5.700;2024-02-15T11:54:06;15.80;99.90
58582;DHT22;44361;51.476;5.700;2024-02-15T11:56:48;15.90;99.90
58582;DHT22;44361;51.476;5.700;2024-02-15T11:59:16;16.20;99.90
58582;DHT22;44361;51.476;5.700;2024-02-15T12:01:57;16.20;99.90
58582;DHT22;44361;51.476;5.700;2024-02-15T12:04:42;16.30;99.90
58582;DHT22;44361;51.476;5.700;2024-02-15T12:07:30;16.40;99.90
58582;DHT22;44361;51.476;5.700;2024-02-15T12:10:18;16.40;99.90
58582;DHT22;44361;51.476;5.700;2024-02-15T12:13:03;16.60;99.90
58582;DHT22;44361;51.476;5.700;2024-02-15T12:15:59;16.70;99.90
58582;DHT22;44361;51.476;5.700;2024-02-15T12:18:44;16.80;99.90
58582;DHT22;44361;51.476;5.700;2024-02-15T12:21:17;16.80;99.90
58582;DHT22;44361;51.476;5.700;2024-02-15T12:23:44;16.90;99.90
58582;DHT22;44361;51.476;5.700;2024-02-15T12:26:11;16.80;99.90
58582;DHT22;44361;51.476;5.700;2024-02-15T12:28:40;16.80;99.90
58582;DHT22;44361;51.476;5.700;2024-02-15T12:31:08;16.90;99.90
58582;DHT22;44361;51.476;5.700;2024-02-15T12:33:35;16.90;99.90
58582;DHT22;44361;51.476;5.700;2024-02-15T12:36:04;16.90;99.90
58582;DHT22;44361;51.476;5.700;2024-02-15T12:38:31;16.80;99.90
58582;DHT22;44361;51.476;5.700;2024-02-15T12:40:57;16.80;99.90
58582;DHT22;44361;51.476;5.700;2024-02-15T12:43:22;16.90;99.90
58582;DHT22;44361;51.476;5.700;2024-02-15T12:45:48;16.90;99.90
58582;DHT22;44361;51.476;5.700;2024-02-15T12:48:13;17.10;99.90
58582;DHT22;44361;51.476;5.700;2024-02-15T12:50:40;17.00;99.90
58582;DHT22;44361;51.476;5.700;2024-02-15T12:53:06;17.00;99.90
58582;DHT22;44361;51.476;5.700;2024-02-15T12:55:35;17.10;99.90
58582;DHT22;44361;51.476;5.700;2024-02-15T12:58:05;17.10;99.90
58582;DHT22;44361;51.476;5.700;2024-02-15T13:00:34;17.20;99.90
58582;DHT22;44361;51.476;5.700;2024-02-15T13:03:06;17.20;99.90
58582;DHT22;44361;51.476;5.700;2024-02-15T13:05:34;17.20;99.90
58582;DHT22;44361;51.476;5.700;2024-02-15T13:08:01;17.40;99.90
58582;DHT22;44361;51.476;5.700;2024-02-15T13:10:29;17.50;99.90
58582;DHT22;44361;51.476;5.700;2024-02-15T13:12:55;17.50;99.90
58582;DHT22;44361;51.476;5.700;2024-02-15T13:15:21;17.80;99.90
58582;DHT22;44361;51.476;5.700;2024-02-15T13:17:51;17.80;99.90
58582;DHT22;44361;51.476;5.700;2024-02-15T13:20:17;17.70;99.90
58582;DHT22;44361;51.476;5.700;2024-02-15T13:22:46;17.70;99.90
58582;DHT22;44361;51.476;5.700;2024-02-15T13:25:14;17.50;99.90
58582;DHT22;44361;51.476;5.700;2024-02-15T13:27:42;17.40;99.90
58582;DHT22;44361;51.476;5.700;2024-02-15T13:30:09;17.40;99.90
58582;DHT22;44361;51.476;5.700;2024-02-15T13:32:39;17.40;99.90
58582;DHT22;44361;51.476;5.700;2024-02-15T13:35:09;17.50;99.90
58582;DHT22;44361;51.476;5.700;2024-02-15T13:37:56;17.50;99.90
58582;DHT22;44361;51.476;5.700;2024-02-15T13:40:26;17.50;99.90
58582;DHT22;44361;51.476;5.700;2024-02-15T13:42:54;17.40;99.90
58582;DHT22;44361;51.476;5.700;2024-02-15T13:45:42;17.40;99.90
58582;DHT22;44361;51.476;5.700;2024-02-15T13:48:09;17.50;99.90
58582;DHT22;44361;51.476;5.700;2024-02-15T13:50:36;17.50;99.90
58582;DHT22;44361;51.476;5.700;2024-02-15T13:53:03;17.50;99.90
58582;DHT22;44361;51.476;5.700;2024-02-15T13:55:28;17.70;99.90
58582;DHT22;44361;51.476;5.700;2024-02-15T13:57:55;17.80;99.90
58582;DHT22;44361;51.476;5.700;2024-02-15T14:00:24;17.80;99.90
58582;DHT22;44361;51.476;5.700;2024-02-15T14:03:00;17.90;99.90
58582;DHT22;44361;51.476;5.700;2024-02-15T14:05:28;17.70;99.90
58582;DHT22;44361;51.476;5.700;2024-02-15T14:08:04;17.50;99.90
58582;DHT22;44361;51.476;5.700;2024-02-15T14:10:35;17.40;99.90
58582;DHT22;44361;51.476;5.700;2024-02-15T14:13:02;17.30;99.90
58582;DHT22;44361;51.476;5.700;2024-02-15T14:15:29;17.20;99.90
58582;DHT22;44361;51.476;5.700;2024-02-15T14:17:55;17.20;99.90
58582;DHT22;44361;51.476;5.700;2024-02-15T14:20:21;17.10;99.90
58582;DHT22;44361;51.476;5.700;2024-02-15T14:22:48;17.10;99.90
58582;DHT22;44361;51.476;5.700;2024-02-15T14:25:24;17.10;99.90
58582;DHT22;44361;51.476;5.700;2024-02-15T14:27:51;17.10;99.90
58582;DHT22;44361;51.476;5.700;2024-02-15T14:30:18;17.30;99.90
58582;DHT22;44361;51.476;5.700;2024-02-15T14:33:02;17.20;99.90
58582;DHT22;44361;51.476;5.700;2024-02-15T14:35:35;17.10;99.90
58582;DHT22;44361;51.476;5.700;2024-02-15T14:38:06;17.20;99.90
58582;DHT22;44361;51.476;5.700;2024-02-15T14:40:35;17.10;99.90
58582;DHT22;44361;51.476;5.700;2024-02-15T14:43:01;16.90;99.90
58582;DHT22;44361;51.476;5.700;2024-02-15T14:45:27;16.90;99.90
58582;DHT22;44361;51.476;5.700;2024-02-15T14:47:53;16.80;99.90
58582;DHT22;44361;51.476;5.700;2024-02-15T14:50:19;16.80;99.90
58582;DHT22;44361;51.476;5.700;2024-02-15T14:52:46;16.70;99.90
58582;DHT22;44361;51.476;5.700;2024-02-15T14:55:13;16.60;99.90
58582;DHT22;44361;51.476;5.700;2024-02-15T14:57:38;16.60;99.90
58582;DHT22;44361;51.476;5.700;2024-02-15T15:00:07;16.60;99.90
58582;DHT22;44361;51.476;5.700;2024-02-15T15:02:38;16.50;99.90
58582;DHT22;44361;51.476;5.700;2024-02-15T15:05:03;16.50;99.90
58582;DHT22;44361;51.476;5.700;2024-02-15T15:07:48;16.40;99.90
58582;DHT22;44361;51.476;5.700;2024-02-15T15:10:32;16.50;99.90
58582;DHT22;44361;51.476;5.700;2024-02-15T15:13:16;16.40;99.90
58582;DHT22;44361;51.476;5.700;2024-02-15T15:15:43;16.40;99.90
58582;DHT22;44361;51.476;5.700;2024-02-15T15:18:08;16.30;99.90
58582;DHT22;44361;51.476;5.700;2024-02-15T15:20:34;16.30;99.90
58582;DHT22;44361;51.476;5.700;2024-02-15T15:23:01;16.30;99.90
58582;DHT22;44361;51.476;5.700;2024-02-15T15:25:27;16.30;99.90
58582;DHT22;44361;51.476;5.700;2024-02-15T15:27:55;16.30;99.90
58582;DHT22;44361;51.476;5.700;2024-02-15T15:30:22;16.30;99.90
58582;DHT22;44361;51.476;5.700;2024-02-15T15:32:48;16.30;99.90
58582;DHT22;44361;51.476;5.700;2024-02-15T15:35:15;16.20;99.90
58582;DHT22;44361;51.476;5.700;2024-02-15T15:37:43;16.20;99.90
58582;DHT22;44361;51.476;5.700;2024-02-15T15:40:09;16.20;99.90
58582;DHT22;44361;51.476;5.700;2024-02-15T15:42:36;16.20;99.90
58582;DHT22;44361;51.476;5.700;2024-02-15T15:45:04;16.20;99.90
58582;DHT22;44361;51.476;5.700;2024-02-15T15:47:30;16.20;99.90
58582;DHT22;44361;51.476;5.700;2024-02-15T15:49:56;16.20;99.90